Izumo Princess — SXMB — position and weather

sailwx.info

Track history (hours):
 
Tides and Currents Weather Stations Pressure Air Temp Water Temp Dewpoint Dewpoint Depression Visibility Wind Speed Wind Dir Waves Ship Positions

Izumo Princess

Last reported at 2015-Jan-21 19:16 UTC. Time now 2015-Feb-02 01:48 UTC.
Position N 38°21' E 015°27'.
Warning: this ship's position is 11 days out of date.

Length 229 m; draft 8.2 m.

Type: Tanker. MMSI: 240611000.

Date/timePositionNaut miles runAvg speedWind from/ knotsBaromVisibWave heightAir tempDewpointWater temp
2015-Jan-21 19:16N 38°21' E 015°27'913.0
2015-Jan-21 18:34N 38°15' E 015°18'3 2.4
2015-Jan-21 17:26N 38°13' E 015°16'0 0.0
2015-Jan-21 16:32N 38°13' E 015°16'0 0.0
2015-Jan-21 15:32N 38°13' E 015°16'0 0.0
2015-Jan-21 14:32N 38°13' E 015°16'0 0.0
2015-Jan-21 13:32N 38°13' E 015°16'0 0.0
2015-Jan-21 12:26N 38°13' E 015°16'0 0.0
2015-Jan-21 11:32N 38°13' E 015°16'0 0.0
2015-Jan-21 10:32N 38°13' E 015°16'0 0.0
2015-Jan-21 09:32N 38°13' E 015°16'0 0.0
2015-Jan-21 08:26N 38°13' E 015°16'0 0.0
2015-Jan-21 07:26N 38°13' E 015°16'0 0.0
2015-Jan-21 06:32N 38°13' E 015°16'0 0.0
2015-Jan-20 19:32N 38°13' E 015°16'0 0.0
2015-Jan-20 18:32N 38°13' E 015°16'0 0.0
2015-Jan-20 17:32N 38°13' E 015°16'0 0.0
2015-Jan-20 16:32N 38°13' E 015°16'0 0.0
2015-Jan-20 15:32N 38°13' E 015°16'0 0.0
2015-Jan-20 14:32N 38°13' E 015°16'0 0.0
2015-Jan-20 13:32N 38°13' E 015°16'0 0.0
2015-Jan-20 12:32N 38°13' E 015°16'0 0.0
2015-Jan-20 11:32N 38°13' E 015°16'1 1.5
2015-Jan-20 10:33N 38°14' E 015°18'1 0.7
2015-Jan-20 09:29N 38°13' E 015°19'0 0.0
2015-Jan-20 08:29N 38°13' E 015°19'0 0.0
2015-Jan-20 07:29N 38°13' E 015°19'0 0.0
2015-Jan-20 06:29N 38°13' E 015°19'0 0.0
2015-Jan-19 18:29N 38°13' E 015°19'0 0.0
2015-Jan-19 17:29N 38°13' E 015°19'0 0.1
2015-Jan-19 16:29N 38°13' E 015°19'0 0.0
2015-Jan-19 15:23N 38°13' E 015°19'0 0.1
2015-Jan-19 14:29N 38°13' E 015°19'0 0.0
2015-Jan-19 13:29N 38°13' E 015°19'0 0.0
2015-Jan-19 12:29N 38°13' E 015°19'0 0.0
2015-Jan-19 11:29N 38°13' E 015°19'0 0.0
2015-Jan-19 10:29N 38°13' E 015°19'0 0.1
2015-Jan-19 09:29N 38°13' E 015°19'0 0.0
2015-Jan-19 08:29N 38°13' E 015°19'0 0.0
2015-Jan-19 07:29N 38°13' E 015°19'0 0.0
2015-Jan-18 19:17N 38°13' E 015°19'0 0.0
2015-Jan-18 18:29N 38°13' E 015°19'0 0.1
2015-Jan-18 17:29N 38°13' E 015°19'0 0.0
2015-Jan-18 16:29N 38°13' E 015°19'0 0.0
2015-Jan-18 15:29N 38°13' E 015°19'0 0.0
2015-Jan-18 14:29N 38°13' E 015°19'0 0.1
2015-Jan-18 13:29N 38°13' E 015°19'0 0.0
2015-Jan-18 12:29N 38°13' E 015°19'0 0.1
2015-Jan-18 11:29N 38°13' E 015°19'0 0.0
2015-Jan-18 10:29N 38°13' E 015°19'0 0.0
2015-Jan-18 09:29N 38°13' E 015°19'0 0.0
2015-Jan-18 08:29N 38°13' E 015°19'0 0.0
2015-Jan-18 07:29N 38°13' E 015°19'0 0.1
2015-Jan-18 06:29N 38°13' E 015°19'0 0.0
2015-Jan-17 19:17N 38°13' E 015°19'0 0.0
2015-Jan-17 18:29N 38°13' E 015°19'0 0.0
2015-Jan-17 17:23N 38°13' E 015°19'0 0.0
2015-Jan-17 16:23N 38°13' E 015°19'0 0.1
2015-Jan-17 15:33N 38°14' E 015°19'6 5.6
2015-Jan-17 14:33N 38°19' E 015°16'6612.6
2015-Jan-17 09:16N 38°19' E 013°51'912.7
2015-Jan-17 08:34N 38°19' E 013°40'1212.2
2015-Jan-17 07:34N 38°19' E 013°24'1212.0
2015-Jan-17 06:34N 38°18' E 013°09'1212.0
2015-Jan-17 05:33N 38°18' E 012°54'1211.7
2015-Jan-17 04:33N 38°17' E 012°39'1311.7
2015-Jan-17 03:26N 38°16' E 012°22'30 9.4
2015-Jan-17 00:17N 37°55' E 011°55'912.6
2015-Jan-16 23:33N 37°48' E 012°02'8612.1
2015-Jan-16 16:27N 36°57' E 013°29'1112.1
2015-Jan-16 15:34N 36°52' E 013°41'1211.9
2015-Jan-16 14:34N 36°46' E 013°53'1212.2
2015-Jan-16 13:34N 36°40' E 014°06'1312.6
2015-Jan-16 12:31N 36°33' E 014°20'45711.9
2015-Jan-14 22:09N 35°07' E 023°34'8312.3
2015-Jan-14 15:23N 34°49' E 025°13'35011.3
2015-Jan-13 08:25N 35°44' E 032°15'5413.9
2015-Jan-13 04:33N 35°54' E 033°21'  
Track history (hours):
 
Tides and Currents Weather Stations Pressure Air Temp Water Temp Dewpoint Dewpoint Depression Visibility Wind Speed Wind Dir Waves Ship Positions

Izumo Princess

Last reported at 2015-Jan-21 19:16 UTC. Time now 2015-Feb-02 01:48 UTC.
Position N 38°21' E 015°27'.
Warning: this ship's position is 11 days out of date.

Length 229 m; draft 8.2 m.

Type: Tanker. MMSI: 240611000.

Date/timePositionNaut miles runAvg speedWind from/ knotsBaromVisibWave heightAir tempDewpointWater temp
2015-Jan-21 19:16N 38°21' E 015°27'913.0
2015-Jan-21 18:34N 38°15' E 015°18'3 2.4
2015-Jan-21 17:26N 38°13' E 015°16'0 0.0
2015-Jan-21 16:32N 38°13' E 015°16'0 0.0
2015-Jan-21 15:32N 38°13' E 015°16'0 0.0
2015-Jan-21 14:32N 38°13' E 015°16'0 0.0
2015-Jan-21 13:32N 38°13' E 015°16'0 0.0
2015-Jan-21 12:26N 38°13' E 015°16'0 0.0
2015-Jan-21 11:32N 38°13' E 015°16'0 0.0
2015-Jan-21 10:32N 38°13' E 015°16'0 0.0
2015-Jan-21 09:32N 38°13' E 015°16'0 0.0
2015-Jan-21 08:26N 38°13' E 015°16'0 0.0
2015-Jan-21 07:26N 38°13' E 015°16'0 0.0
2015-Jan-21 06:32N 38°13' E 015°16'0 0.0
2015-Jan-20 19:32N 38°13' E 015°16'0 0.0
2015-Jan-20 18:32N 38°13' E 015°16'0 0.0
2015-Jan-20 17:32N 38°13' E 015°16'0 0.0
2015-Jan-20 16:32N 38°13' E 015°16'0 0.0
2015-Jan-20 15:32N 38°13' E 015°16'0 0.0
2015-Jan-20 14:32N 38°13' E 015°16'0 0.0
2015-Jan-20 13:32N 38°13' E 015°16'0 0.0
2015-Jan-20 12:32N 38°13' E 015°16'0 0.0
2015-Jan-20 11:32N 38°13' E 015°16'1 1.5
2015-Jan-20 10:33N 38°14' E 015°18'1 0.7
2015-Jan-20 09:29N 38°13' E 015°19'0 0.0
2015-Jan-20 08:29N 38°13' E 015°19'0 0.0
2015-Jan-20 07:29N 38°13' E 015°19'0 0.0
2015-Jan-20 06:29N 38°13' E 015°19'0 0.0
2015-Jan-19 18:29N 38°13' E 015°19'0 0.0
2015-Jan-19 17:29N 38°13' E 015°19'0 0.1
2015-Jan-19 16:29N 38°13' E 015°19'0 0.0
2015-Jan-19 15:23N 38°13' E 015°19'0 0.1
2015-Jan-19 14:29N 38°13' E 015°19'0 0.0
2015-Jan-19 13:29N 38°13' E 015°19'0 0.0
2015-Jan-19 12:29N 38°13' E 015°19'0 0.0
2015-Jan-19 11:29N 38°13' E 015°19'0 0.0
2015-Jan-19 10:29N 38°13' E 015°19'0 0.1
2015-Jan-19 09:29N 38°13' E 015°19'0 0.0
2015-Jan-19 08:29N 38°13' E 015°19'0 0.0
2015-Jan-19 07:29N 38°13' E 015°19'0 0.0
2015-Jan-18 19:17N 38°13' E 015°19'0 0.0
2015-Jan-18 18:29N 38°13' E 015°19'0 0.1
2015-Jan-18 17:29N 38°13' E 015°19'0 0.0
2015-Jan-18 16:29N 38°13' E 015°19'0 0.0
2015-Jan-18 15:29N 38°13' E 015°19'0 0.0
2015-Jan-18 14:29N 38°13' E 015°19'0 0.1
2015-Jan-18 13:29N 38°13' E 015°19'0 0.0
2015-Jan-18 12:29N 38°13' E 015°19'0 0.1
2015-Jan-18 11:29N 38°13' E 015°19'0 0.0
2015-Jan-18 10:29N 38°13' E 015°19'0 0.0
2015-Jan-18 09:29N 38°13' E 015°19'0 0.0
2015-Jan-18 08:29N 38°13' E 015°19'0 0.0
2015-Jan-18 07:29N 38°13' E 015°19'0 0.1
2015-Jan-18 06:29N 38°13' E 015°19'0 0.0
2015-Jan-17 19:17N 38°13' E 015°19'0 0.0
2015-Jan-17 18:29N 38°13' E 015°19'0 0.0
2015-Jan-17 17:23N 38°13' E 015°19'0 0.0
2015-Jan-17 16:23N 38°13' E 015°19'0 0.1
2015-Jan-17 15:33N 38°14' E 015°19'6 5.6
2015-Jan-17 14:33N 38°19' E 015°16'6612.6
2015-Jan-17 09:16N 38°19' E 013°51'912.7
2015-Jan-17 08:34N 38°19' E 013°40'1212.2
2015-Jan-17 07:34N 38°19' E 013°24'1212.0
2015-Jan-17 06:34N 38°18' E 013°09'1212.0
2015-Jan-17 05:33N 38°18' E 012°54'1211.7
2015-Jan-17 04:33N 38°17' E 012°39'1311.7
2015-Jan-17 03:26N 38°16' E 012°22'30 9.4
2015-Jan-17 00:17N 37°55' E 011°55'912.6
2015-Jan-16 23:33N 37°48' E 012°02'8612.1
2015-Jan-16 16:27N 36°57' E 013°29'1112.1
2015-Jan-16 15:34N 36°52' E 013°41'1211.9
2015-Jan-16 14:34N 36°46' E 013°53'1212.2
2015-Jan-16 13:34N 36°40' E 014°06'1312.6
2015-Jan-16 12:31N 36°33' E 014°20'45711.9
2015-Jan-14 22:09N 35°07' E 023°34'8312.3
2015-Jan-14 15:23N 34°49' E 025°13'35011.3
2015-Jan-13 08:25N 35°44' E 032°15'5413.9
2015-Jan-13 04:33N 35°54' E 033°21'  

Dump ship's entire track history